Time;durP1;ratioP1;P1;durP2;ratioP2;P2;SDS_P1;SDS_P2;PMS_P1;PMS_P2;Temp;Humidity;BMP_temperature;BMP_pressure;BME280_temperature;BME280_humidity;BME280_pressure;Samples;Min_cycle;Max_cycle;Signal;HPM_P1;HPM_P2
2023/10/07 00:00:59;;;;;;;5.03;4.60;;;12.40;99.90;;;;;;5116212;28;20161;-78
2023/10/07 00:03:25;;;;;;;5.37;4.73;;;12.70;99.90;;;;;;5116552;28;20488;-77
2023/10/07 00:06:00;;;;;;;4.93;4.47;;;12.30;99.90;;;;;;5116007;28;20748;-78
2023/10/07 00:08:27;;;;;;;5.07;4.50;;;12.30;99.90;;;;;;5116808;28;20758;-80
2023/10/07 00:10:58;;;;;;;6.93;5.00;;;12.30;99.90;;;;;;5117471;28;20230;-79
2023/10/07 00:13:26;;;;;;;6.93;4.70;;;12.40;99.90;;;;;;5116018;28;20253;-78
2023/10/07 00:15:53;;;;;;;8.03;4.90;;;12.30;99.90;;;;;;5115656;28;20162;-81
2023/10/07 00:18:23;;;;;;;4.73;4.33;;;12.30;99.90;;;;;;5115908;28;20283;-81
2023/10/07 00:20:55;;;;;;;6.87;4.83;;;12.30;99.90;;;;;;5098448;28;20567;-80
2023/10/07 00:23:28;;;;;;;6.07;4.60;;;12.20;99.90;;;;;;5116893;28;20724;-79
2023/10/07 00:25:56;;;;;;;5.00;4.50;;;12.30;99.90;;;;;;5100094;28;20236;-79
2023/10/07 00:28:32;;;;;;;5.87;4.90;;;12.70;99.90;;;;;;5099188;28;20185;-78
2023/10/07 00:31:02;;;;;;;5.53;4.93;;;12.30;99.90;;;;;;5115480;28;20163;-77
2023/10/07 00:33:37;;;;;;;7.90;4.83;;;12.30;99.90;;;;;;5096952;28;20637;-77
2023/10/07 00:36:06;;;;;;;5.57;4.47;;;12.30;99.90;;;;;;5115522;28;20191;-77
2023/10/07 00:38:38;;;;;;;6.33;4.50;;;12.30;99.90;;;;;;5115461;28;20175;-75
2023/10/07 00:41:04;;;;;;;5.17;4.53;;;12.30;99.90;;;;;;5124896;28;20158;-77
2023/10/07 00:43:36;;;;;;;5.37;4.60;;;12.40;99.90;;;;;;5115103;28;20181;-78
2023/10/07 00:46:28;;;;;;;4.63;4.23;;;12.30;99.90;;;;;;5127236;28;20665;-76
2023/10/07 00:48:57;;;;;;;6.07;4.23;;;12.10;99.90;;;;;;5118954;28;20188;-75
2023/10/07 00:51:33;;;;;;;5.00;4.50;;;12.10;99.90;;;;;;5118240;28;20175;-80
2023/10/07 00:54:18;;;;;;;6.30;5.13;;;12.10;99.90;;;;;;5117741;28;20161;-80
2023/10/07 00:57:05;;;;;;;5.10;4.50;;;12.10;99.90;;;;;;5119483;28;20182;-78
2023/10/07 00:59:32;;;;;;;8.00;5.50;;;12.10;99.90;;;;;;5118040;28;20215;-78
2023/10/07 01:01:58;;;;;;;5.33;4.83;;;12.10;99.90;;;;;;5115001;28;20239;-79
2023/10/07 01:04:24;;;;;;;4.77;4.33;;;12.10;99.90;;;;;;5114927;28;20249;-79
2023/10/07 01:07:00;;;;;;;4.80;4.40;;;12.10;99.90;;;;;;5115087;28;20309;-79
2023/10/07 01:09:28;;;;;;;6.20;4.53;;;12.00;99.90;;;;;;5115552;28;20154;-78
2023/10/07 01:11:57;;;;;;;5.63;4.53;;;12.00;99.90;;;;;;5114832;28;20174;-79
2023/10/07 01:14:26;;;;;;;6.00;4.67;;;12.10;99.90;;;;;;5115785;28;20169;-77
2023/10/07 01:16:53;;;;;;;4.53;4.13;;;12.00;99.90;;;;;;5116753;28;20198;-79
2023/10/07 01:19:27;;;;;;;4.83;4.40;;;12.00;99.90;;;;;;5097689;28;20230;-81
2023/10/07 01:21:55;;;;;;;5.73;4.83;;;11.90;99.90;;;;;;5126916;28;20167;-79
2023/10/07 01:24:44;;;;;;;5.20;4.73;;;11.70;99.90;;;;;;5116092;28;20180;-80
2023/10/07 01:30:13;;;;;;;5.03;4.60;;;11.90;99.90;;;;;;5116994;28;20493;-79
2023/10/07 01:32:50;;;;;;;5.53;5.03;;;11.90;99.90;;;;;;5117683;28;20290;-81
2023/10/07 01:35:25;;;;;;;4.90;4.40;;;12.00;99.90;;;;;;5114760;28;20608;-79
2023/10/07 01:37:59;;;;;;;6.30;4.70;;;11.90;99.90;;;;;;5114558;28;20154;-80
2023/10/07 01:40:27;;;;;;;4.97;4.47;;;11.90;99.90;;;;;;5114452;28;20156;-79
2023/10/07 01:42:53;;;;;;;6.00;4.63;;;12.10;99.90;;;;;;5115132;28;20173;-80
2023/10/07 01:45:34;;;;;;;5.60;5.03;;;11.90;99.90;;;;;;5114482;28;20166;-78
2023/10/07 01:48:07;;;;;;;5.20;4.77;;;11.90;99.90;;;;;;5114699;28;20241;-79
2023/10/07 01:50:40;;;;;;;5.90;4.63;;;11.90;99.90;;;;;;5114532;28;20520;-79
2023/10/07 01:53:06;;;;;;;9.07;5.00;;;11.90;99.90;;;;;;5114668;28;20163;-79
2023/10/07 01:55:45;;;;;;;6.00;4.83;;;11.90;99.90;;;;;;5114327;28;20170;-78
2023/10/07 01:58:15;;;;;;;5.50;5.00;;;11.90;99.90;;;;;;5129123;28;20183;-80
2023/10/07 02:00:44;;;;;;;4.83;4.40;;;11.90;99.90;;;;;;5134053;28;20176;-80
2023/10/07 02:03:13;;;;;;;5.00;4.50;;;11.90;99.90;;;;;;5132271;28;20506;-80
2023/10/07 02:05:48;;;;;;;5.20;4.30;;;11.80;99.90;;;;;;5114805;28;20552;-80
2023/10/07 02:08:21;;;;;;;5.67;4.17;;;11.70;99.90;;;;;;5113861;28;20174;-80
2023/10/07 02:10:52;;;;;;;4.70;4.07;;;11.60;99.90;;;;;;5115555;28;20612;-80
2023/10/07 02:13:19;;;;;;;4.77;4.00;;;11.60;99.90;;;;;;5117523;28;20168;-78
2023/10/07 02:15:52;;;;;;;6.40;4.43;;;11.50;99.90;;;;;;5115573;28;20665;-79
2023/10/07 02:18:19;;;;;;;4.37;3.73;;;11.40;99.90;;;;;;5113385;28;20229;-80
2023/10/07 02:20:49;;;;;;;6.03;4.20;;;11.40;99.90;;;;;;5113533;28;20194;-79
2023/10/07 02:26:27;;;;;;;4.63;4.27;;;11.40;99.90;;;;;;5114449;28;20205;-78
2023/10/07 02:28:55;;;;;;;4.20;3.67;;;11.30;99.90;;;;;;5113760;28;20166;-80
2023/10/07 02:31:23;;;;;;;5.57;4.43;;;11.40;99.90;;;;;;5113659;28;20175;-81
2023/10/07 02:33:52;;;;;;;4.23;3.83;;;11.30;99.90;;;;;;5113490;28;20667;-81
2023/10/07 02:36:28;;;;;;;4.77;4.37;;;11.30;99.90;;;;;;5114936;28;20205;-78
2023/10/07 02:39:03;;;;;;;4.93;4.40;;;11.40;99.90;;;;;;5097627;28;20186;-79
2023/10/07 02:41:31;;;;;;;4.70;4.13;;;11.40;99.90;;;;;;5119193;28;20591;-79
2023/10/07 02:44:10;;;;;;;5.17;3.97;;;11.40;99.90;;;;;;5135760;28;20469;-79
2023/10/07 02:46:36;;;;;;;4.87;4.37;;;11.40;99.90;;;;;;5121760;28;20284;-78
2023/10/07 02:49:05;;;;;;;6.70;4.57;;;11.40;99.90;;;;;;5119992;28;20632;-79
2023/10/07 02:51:39;;;;;;;4.37;3.97;;;11.30;99.90;;;;;;5101275;28;20183;-78
2023/10/07 02:54:15;;;;;;;5.23;4.73;;;11.40;99.90;;;;;;5120094;28;20318;-78
2023/10/07 02:56:54;;;;;;;7.00;4.73;;;11.30;99.90;;;;;;5120325;28;20250;-79
2023/10/07 02:59:27;;;;;;;4.90;4.40;;;11.30;99.90;;;;;;5131980;28;20153;-78
2023/10/07 03:02:19;;;;;;;4.97;4.60;;;11.20;99.90;;;;;;5128094;28;20164;-79
2023/10/07 03:07:41;;;;;;;6.43;4.67;;;11.20;99.90;;;;;;5128208;28;20234;-80
2023/10/07 03:10:17;;;;;;;4.93;4.43;;;11.20;99.90;;;;;;5126649;28;20255;-81
2023/10/07 03:13:01;;;;;;;5.63;5.00;;;11.20;99.90;;;;;;5098469;28;20182;-81
2023/10/07 03:17:59;;;;;;;6.07;4.37;;;11.20;99.90;;;;;;5116578;28;20161;-81
2023/10/07 03:20:30;;;;;;;6.37;5.17;;;11.20;99.90;;;;;;5116794;28;20673;-80
2023/10/07 03:23:14;;;;;;;6.40;4.93;;;11.20;99.90;;;;;;5117486;28;20152;-78
2023/10/07 03:28:24;;;;;;;7.03;4.77;;;11.20;99.90;;;;;;5126271;28;20176;-79
2023/10/07 03:30:55;;;;;;;4.93;4.43;;;11.10;99.90;;;;;;5100845;28;20240;-78
2023/10/07 03:33:43;;;;;;;5.43;4.57;;;11.10;99.90;;;;;;5120388;28;20161;-80
2023/10/07 03:36:29;;;;;;;5.37;4.87;;;11.10;99.90;;;;;;5116984;28;20165;-79
2023/10/07 03:39:09;;;;;;;5.53;5.00;;;11.00;99.90;;;;;;5121163;28;20171;-78
2023/10/07 03:41:35;;;;;;;6.20;5.07;;;11.00;99.90;;;;;;5118122;28;20168;-79
2023/10/07 03:44:04;;;;;;;5.07;4.53;;;11.00;99.90;;;;;;5116940;28;20271;-78
2023/10/07 03:46:30;;;;;;;5.37;4.80;;;11.10;99.90;;;;;;5117022;28;20226;-79
2023/10/07 03:48:56;;;;;;;4.80;4.07;;;11.10;99.90;;;;;;5116540;28;20206;-78
2023/10/07 03:51:22;;;;;;;4.63;4.20;;;11.00;99.90;;;;;;5116306;28;20199;-78
2023/10/07 03:53:55;;;;;;;6.43;4.77;;;11.00;99.90;;;;;;5115835;28;20163;-79
2023/10/07 03:56:21;;;;;;;5.53;5.03;;;11.00;99.90;;;;;;5115992;28;20633;-79
2023/10/07 03:58:47;;;;;;;4.77;4.23;;;11.00;99.90;;;;;;5116033;28;20220;-78
2023/10/07 04:01:17;;;;;;;5.30;4.80;;;11.00;99.90;;;;;;5116319;28;20202;-78
2023/10/07 04:03:47;;;;;;;6.20;4.90;;;11.00;99.90;;;;;;5116036;28;20212;-79
2023/10/07 04:06:18;;;;;;;7.23;5.00;;;10.90;99.90;;;;;;5115614;28;20609;-78
2023/10/07 04:08:45;;;;;;;6.23;4.80;;;10.90;99.90;;;;;;5115951;28;20170;-80
2023/10/07 04:11:19;;;;;;;5.07;4.57;;;10.80;99.90;;;;;;5115550;28;20176;-77
2023/10/07 04:13:46;;;;;;;4.77;4.37;;;10.90;99.90;;;;;;5115725;28;20170;-79
2023/10/07 04:16:22;;;;;;;4.70;4.37;;;10.80;99.90;;;;;;5115767;28;20537;-78
2023/10/07 04:19:06;;;;;;;5.93;4.40;;;10.80;99.90;;;;;;5116006;28;20227;-78
2023/10/07 04:21:39;;;;;;;6.00;4.70;;;10.80;99.90;;;;;;5117238;28;20173;-79
2023/10/07 04:24:09;;;;;;;4.40;4.00;;;10.70;99.90;;;;;;5115582;28;20152;-79
2023/10/07 04:26:39;;;;;;;5.10;4.60;;;10.70;99.90;;;;;;5117584;28;20197;-78
2023/10/07 04:29:08;;;;;;;5.87;4.00;;;10.70;99.90;;;;;;5116445;28;20179;-79
2023/10/07 04:31:37;;;;;;;4.83;3.77;;;10.60;99.90;;;;;;5118510;28;20262;-80
2023/10/07 04:34:11;;;;;;;5.57;4.10;;;10.80;99.90;;;;;;5120614;28;20166;-79
2023/10/07 04:37:11;;;;;;;5.00;4.50;;;10.70;99.90;;;;;;5132211;28;20245;-79
2023/10/07 04:39:28;;;;;;;5.37;4.87;;;10.60;99.90;;;;;;5114990;28;20188;-77
2023/10/07 04:41:59;;;;;;;5.03;4.63;;;10.70;99.90;;;;;;5115972;28;20150;-78
2023/10/07 04:52:39;;;;;;;4.60;4.20;;;10.70;99.90;;;;;;5115260;28;20244;-79
2023/10/07 04:55:19;;;;;;;4.87;4.47;;;10.70;99.90;;;;;;5117007;28;20162;-78
2023/10/07 05:03:08;;;;;;;7.90;4.73;;;10.60;99.90;;;;;;5128288;27;20182;-80
2023/10/07 05:05:34;;;;;;;6.07;4.50;;;10.60;99.90;;;;;;5114397;28;20160;-79
2023/10/07 05:08:11;;;;;;;4.90;4.40;;;10.70;99.90;;;;;;5119180;28;20208;-80
2023/10/07 05:10:41;;;;;;;4.80;4.40;;;10.70;99.90;;;;;;5104146;28;20199;-79
2023/10/07 05:13:08;;;;;;;5.07;4.50;;;10.80;99.90;;;;;;5133939;27;20172;-81
2023/10/07 05:15:44;;;;;;;5.57;4.50;;;10.80;99.90;;;;;;5135011;27;20177;-79
2023/10/07 05:18:12;;;;;;;4.93;4.43;;;10.80;99.90;;;;;;5134863;27;20769;-79
2023/10/07 05:20:42;;;;;;;7.13;4.30;;;10.80;99.90;;;;;;5125354;27;20173;-78
2023/10/07 05:23:13;;;;;;;4.87;4.47;;;10.70;99.90;;;;;;5114782;28;20608;-79
2023/10/07 05:25:48;;;;;;;5.53;4.37;;;10.80;99.90;;;;;;5114255;28;20162;-79
2023/10/07 05:28:17;;;;;;;5.73;4.20;;;10.80;99.90;;;;;;5114159;28;20531;-79
2023/10/07 05:30:50;;;;;;;5.00;4.50;;;10.80;99.90;;;;;;5114740;28;20293;-79
2023/10/07 05:33:26;;;;;;;6.40;4.77;;;10.80;99.90;;;;;;5116016;28;20235;-78
2023/10/07 05:36:14;;;;;;;5.00;4.60;;;10.80;99.90;;;;;;5114344;28;20697;-80
2023/10/07 05:38:42;;;;;;;4.97;4.50;;;10.80;99.90;;;;;;5132844;27;20180;-78
2023/10/07 05:41:12;;;;;;;4.80;4.43;;;10.80;99.90;;;;;;5116414;27;20176;-79
2023/10/07 05:43:43;;;;;;;4.80;4.33;;;10.80;99.90;;;;;;5136015;27;20175;-78
2023/10/07 05:46:13;;;;;;;4.53;4.13;;;10.80;99.90;;;;;;5137957;27;20246;-80
2023/10/07 05:48:40;;;;;;;4.40;4.00;;;10.90;99.90;;;;;;5134970;27;20687;-79
2023/10/07 05:51:09;;;;;;;5.73;4.27;;;10.90;99.90;;;;;;5135069;27;20570;-80
2023/10/07 05:53:53;;;;;;;4.13;3.80;;;10.90;99.90;;;;;;5134244;27;20177;-78
2023/10/07 05:56:18;;;;;;;4.50;4.10;;;11.00;99.90;;;;;;5134458;27;20278;-80
2023/10/07 05:58:48;;;;;;;6.13;4.57;;;11.00;99.90;;;;;;5134036;27;20593;-80
2023/10/07 06:01:18;;;;;;;6.87;4.30;;;11.00;99.90;;;;;;5134407;27;20176;-80
2023/10/07 06:03:44;;;;;;;4.43;4.03;;;11.00;99.90;;;;;;5134617;27;20199;-78
2023/10/07 06:06:10;;;;;;;4.37;3.97;;;10.90;99.90;;;;;;5134103;27;20655;-80
2023/10/07 06:08:36;;;;;;;5.23;4.23;;;11.00;99.90;;;;;;5134523;27;20263;-79
2023/10/07 06:11:04;;;;;;;4.83;4.30;;;11.00;99.90;;;;;;5135823;27;20686;-79
2023/10/07 06:13:33;;;;;;;5.07;4.10;;;11.00;99.90;;;;;;5148877;27;20210;-79
2023/10/07 06:15:59;;;;;;;5.10;4.63;;;11.10;99.90;;;;;;5116431;27;20526;-79
2023/10/07 06:18:26;;;;;;;5.13;4.50;;;11.00;99.90;;;;;;5113372;28;20218;-80
2023/10/07 06:20:52;;;;;;;5.10;4.60;;;11.20;99.90;;;;;;5095449;28;20181;-80
2023/10/07 06:23:20;;;;;;;4.83;4.37;;;11.20;99.90;;;;;;5114516;28;20176;-80
2023/10/07 06:25:50;;;;;;;9.50;5.47;;;11.10;99.90;;;;;;5113415;28;20221;-80
2023/10/07 06:31:13;;;;;;;6.20;5.40;;;11.00;99.90;;;;;;5113731;28;20613;-79
2023/10/07 06:33:39;;;;;;;5.20;4.70;;;11.00;99.90;;;;;;5115333;28;20156;-80
2023/10/07 06:36:07;;;;;;;5.83;4.53;;;11.00;99.90;;;;;;5116800;28;20171;-81
2023/10/07 06:38:36;;;;;;;5.13;4.70;;;10.90;99.90;;;;;;5113849;28;20647;-82
2023/10/07 06:41:12;;;;;;;8.10;5.10;;;10.90;99.90;;;;;;5112877;28;20183;-79
2023/10/07 06:43:42;;;;;;;5.27;4.77;;;11.00;99.90;;;;;;5112776;28;20617;-80
2023/10/07 06:46:11;;;;;;;5.30;4.80;;;11.10;99.90;;;;;;5113272;28;20203;-81
2023/10/07 06:48:38;;;;;;;6.60;5.30;;;11.10;99.90;;;;;;5113237;28;20222;-81
2023/10/07 06:51:05;;;;;;;7.83;4.80;;;11.20;99.90;;;;;;5114029;28;20184;-79
2023/10/07 06:53:32;;;;;;;5.40;4.90;;;11.30;99.90;;;;;;5117025;28;20217;-79
2023/10/07 06:55:58;;;;;;;5.40;4.53;;;11.40;99.90;;;;;;5117460;28;20284;-80
2023/10/07 06:58:25;;;;;;;5.00;4.50;;;11.50;99.90;;;;;;5115579;28;20162;-80
2023/10/07 07:00:59;;;;;;;5.57;5.07;;;11.60;99.90;;;;;;5113196;28;20203;-79
2023/10/07 07:03:27;;;;;;;6.10;5.57;;;11.70;99.90;;;;;;5113554;28;20154;-79
2023/10/07 07:05:54;;;;;;;9.07;6.23;;;11.80;99.90;;;;;;5112621;28;20244;-77
2023/10/07 07:08:22;;;;;;;5.57;5.03;;;11.90;99.90;;;;;;5113318;28;20166;-78
2023/10/07 07:10:55;;;;;;;5.57;5.17;;;12.00;99.90;;;;;;5117077;28;20172;-76
2023/10/07 07:13:27;;;;;;;5.50;4.97;;;12.00;99.90;;;;;;5122317;28;20251;-79
2023/10/07 07:15:57;;;;;;;6.93;5.20;;;12.10;99.90;;;;;;5114034;28;20190;-78
2023/10/07 07:18:26;;;;;;;7.13;5.63;;;12.20;99.90;;;;;;5113091;28;20704;-78
2023/10/07 07:21:13;;;;;;;5.83;5.03;;;12.20;99.90;;;;;;5112876;28;20177;-80
2023/10/07 07:23:49;;;;;;;5.70;5.10;;;12.30;99.90;;;;;;5120999;28;20154;-80
2023/10/07 07:26:18;;;;;;;6.77;5.67;;;12.30;99.90;;;;;;5129328;28;20266;-81
2023/10/07 07:28:44;;;;;;;6.87;6.17;;;12.40;99.90;;;;;;5130537;28;20166;-80
2023/10/07 07:31:12;;;;;;;7.93;5.53;;;12.50;99.90;;;;;;5122265;28;20230;-81
2023/10/07 07:33:38;;;;;;;6.33;5.60;;;12.60;99.90;;;;;;5101458;28;20513;-79
2023/10/07 07:36:48;;;;;;;7.60;6.80;;;12.70;99.90;;;;;;5116749;28;20201;-79
2023/10/07 07:38:54;;;;;;;9.40;7.33;;;12.80;99.90;;;;;;5117367;28;20189;-78
2023/10/07 07:41:34;;;;;;;14.03;9.57;;;12.90;99.90;;;;;;5116757;28;20174;-80
2023/10/07 07:44:00;;;;;;;11.70;8.37;;;13.00;99.90;;;;;;5100014;28;20256;-80
2023/10/07 07:46:29;;;;;;;5.60;5.00;;;13.20;99.90;;;;;;5120287;28;20229;-80
2023/10/07 07:49:08;;;;;;;8.73;4.87;;;13.40;99.90;;;;;;5126507;28;20185;-80
2023/10/07 07:51:37;;;;;;;6.67;5.73;;;13.50;99.90;;;;;;5120351;28;20186;-81
2023/10/07 07:54:08;;;;;;;5.40;4.90;;;13.70;99.90;;;;;;5120295;28;20586;-79
2023/10/07 07:56:35;;;;;;;5.40;4.90;;;13.70;99.90;;;;;;5099276;28;20232;-80
2023/10/07 07:59:13;;;;;;;6.37;5.17;;;13.80;99.90;;;;;;5117725;28;20514;-78
2023/10/07 08:01:53;;;;;;;5.90;5.40;;;13.70;99.90;;;;;;5116750;28;20157;-79
2023/10/07 08:07:28;;;;;;;7.33;5.67;;;13.70;99.90;;;;;;5117263;28;20208;-79
2023/10/07 08:09:58;;;;;;;7.37;5.90;;;13.80;99.90;;;;;;5127435;28;20146;-80
2023/10/07 08:12:28;;;;;;;7.27;5.50;;;13.90;99.90;;;;;;5107671;28;20184;-78
2023/10/07 08:15:38;;;;;;;6.33;5.73;;;14.00;99.90;;;;;;5116389;28;20211;-80
2023/10/07 08:17:55;;;;;;;6.40;5.80;;;14.20;99.90;;;;;;5115638;28;20186;-78
2023/10/07 08:20:44;;;;;;;6.63;6.03;;;14.30;99.90;;;;;;5107252;28;20178;-81
2023/10/07 08:23:21;;;;;;;6.77;6.07;;;14.50;99.90;;;;;;5125800;28;20185;-80
2023/10/07 08:25:47;;;;;;;8.20;5.60;;;14.70;99.90;;;;;;5118133;28;20161;-81
2023/10/07 08:31:13;;;;;;;8.40;6.40;;;14.80;99.90;;;;;;5116621;28;20169;-80
2023/10/07 08:33:38;;;;;;;9.87;6.03;;;14.90;99.90;;;;;;5098257;28;20174;-80
2023/10/07 08:36:07;;;;;;;6.83;5.90;;;14.90;99.90;;;;;;5115532;28;20174;-79
2023/10/07 08:38:50;;;;;;;8.13;5.73;;;14.90;99.90;;;;;;5115305;28;20239;-82
2023/10/07 08:41:16;;;;;;;9.97;7.13;;;15.20;99.90;;;;;;5115578;28;20159;-80
2023/10/07 08:43:44;;;;;;;6.10;5.57;;;15.20;99.90;;;;;;5115969;28;20261;-78
2023/10/07 08:46:16;;;;;;;6.50;5.70;;;15.40;99.90;;;;;;5097738;28;20206;-79
2023/10/07 08:51:41;;;;;;;6.93;6.23;;;15.40;99.90;;;;;;5118066;28;20653;-80
2023/10/07 08:54:26;;;;;;;9.23;5.50;;;15.50;99.90;;;;;;5100327;28;20221;-80
2023/10/07 08:56:54;;;;;;;5.73;5.20;;;15.40;99.90;;;;;;5121772;28;20244;-79
2023/10/07 08:59:33;;;;;;;6.70;5.90;;;15.40;99.90;;;;;;5130843;28;20173;-79
2023/10/07 09:02:00;;;;;;;6.67;5.43;;;15.60;99.90;;;;;;5118707;28;20191;-78
2023/10/07 09:04:32;;;;;;;8.20;5.70;;;15.70;99.90;;;;;;5114634;28;20657;-78
2023/10/07 09:06:59;;;;;;;10.27;6.70;;;15.70;99.90;;;;;;5115057;28;20677;-79
2023/10/07 09:09:37;;;;;;;10.20;7.30;;;15.70;99.90;;;;;;5116533;28;20219;-79
2023/10/07 09:12:11;;;;;;;14.87;11.40;;;15.70;99.90;;;;;;5116026;28;20517;-82
2023/10/07 09:14:40;;;;;;;10.13;6.33;;;15.90;99.90;;;;;;5121861;28;20645;-79
2023/10/07 09:17:09;;;;;;;6.17;5.57;;;16.00;99.90;;;;;;5115980;28;20158;-79
2023/10/07 09:19:36;;;;;;;6.27;5.43;;;16.10;99.90;;;;;;5113926;28;20226;-80
2023/10/07 09:22:10;;;;;;;6.63;5.43;;;16.10;99.90;;;;;;5114027;28;20262;-79
2023/10/07 09:24:43;;;;;;;8.17;5.60;;;16.10;99.90;;;;;;5120080;28;20181;-79
2023/10/07 09:27:13;;;;;;;5.60;5.10;;;16.20;99.90;;;;;;5122594;28;20190;-79
2023/10/07 09:29:44;;;;;;;5.20;4.70;;;16.30;99.90;;;;;;5114185;28;20197;-80
2023/10/07 09:32:21;;;;;;;5.97;5.33;;;16.30;99.90;;;;;;5114115;28;20169;-80
2023/10/07 09:34:47;;;;;;;5.63;5.00;;;16.30;99.90;;;;;;5095789;28;20169;-79
2023/10/07 09:37:21;;;;;;;5.80;5.20;;;16.40;99.90;;;;;;5114097;28;20177;-79
2023/10/07 09:42:37;;;;;;;7.17;4.87;;;16.50;99.90;;;;;;5115427;28;20212;-80
2023/10/07 09:47:37;;;;;;;5.70;5.03;;;16.60;99.90;;;;;;5118636;28;20208;-79
2023/10/07 09:50:19;;;;;;;6.50;5.80;;;16.60;99.90;;;;;;5117994;28;20158;-78
2023/10/07 09:52:51;;;;;;;6.27;4.90;;;16.60;99.90;;;;;;5100607;28;20694;-78
2023/10/07 09:55:40;;;;;;;5.40;4.90;;;16.60;99.90;;;;;;5102381;28;20174;-79
2023/10/07 09:58:36;;;;;;;8.03;4.70;;;16.60;99.90;;;;;;5114342;28;20169;-79
2023/10/07 10:01:37;;;;;;;6.53;5.00;;;16.60;99.90;;;;;;5117755;28;20162;-78
2023/10/07 10:04:36;;;;;;;6.90;4.93;;;16.70;99.90;;;;;;5113765;28;20149;-78
2023/10/07 10:07:29;;;;;;;7.97;5.27;;;16.90;99.90;;;;;;5113688;28;20311;-78
2023/10/07 10:10:13;;;;;;;5.90;5.30;;;17.10;99.90;;;;;;5113434;28;20185;-79
2023/10/07 10:13:51;;;;;;;6.80;5.30;;;17.40;99.90;;;;;;5115195;28;20158;-79
2023/10/07 10:18:35;;;;;;;5.40;4.90;;;17.60;99.90;;;;;;5113921;28;20166;-77
2023/10/07 10:21:05;;;;;;;5.67;4.97;;;17.70;99.90;;;;;;5116844;28;20185;-77
2023/10/07 10:23:37;;;;;;;7.13;5.30;;;17.80;99.90;;;;;;5122461;28;20173;-76
2023/10/07 10:26:14;;;;;;;6.23;4.60;;;17.90;99.90;;;;;;5113919;28;20511;-78
2023/10/07 10:28:41;;;;;;;5.50;5.00;;;18.00;99.90;;;;;;5114299;28;20158;-79
2023/10/07 10:31:21;;;;;;;5.40;4.90;;;18.10;99.90;;;;;;5094422;28;20178;-78
2023/10/07 10:33:50;;;;;;;5.70;4.90;;;18.20;99.90;;;;;;5112966;28;20162;-78
2023/10/07 10:36:22;;;;;;;5.47;4.03;;;18.20;99.90;;;;;;5113100;28;20227;-77
2023/10/07 10:38:48;;;;;;;7.33;4.57;;;18.10;99.90;;;;;;5113155;28;20520;-78
2023/10/07 10:41:15;;;;;;;3.97;3.67;;;18.10;99.90;;;;;;5113102;28;20166;-79
2023/10/07 10:43:41;;;;;;;7.13;4.93;;;18.10;99.90;;;;;;5094649;28;20186;-78
2023/10/07 10:46:08;;;;;;;4.87;4.43;;;18.20;99.90;;;;;;5112782;28;20181;-77
2023/10/07 10:48:34;;;;;;;4.97;4.03;;;18.20;99.90;;;;;;5114503;28;20593;-79
2023/10/07 10:51:07;;;;;;;5.63;5.07;;;18.20;99.90;;;;;;5098091;28;20182;-79
2023/10/07 10:53:40;;;;;;;4.43;4.00;;;18.30;99.90;;;;;;5114872;28;20219;-77
2023/10/07 10:56:10;;;;;;;5.50;4.13;;;18.40;99.90;;;;;;5113424;28;20196;-77
2023/10/07 10:58:39;;;;;;;4.80;3.70;;;18.50;99.90;;;;;;5113784;28;20214;-79
2023/10/07 11:01:05;;;;;;;3.23;3.03;;;18.50;99.90;;;;;;5122993;28;20173;-79
2023/10/07 11:03:36;;;;;;;40.60;25.53;;;18.60;99.90;;;;;;5120022;28;20166;-77
2023/10/07 11:06:06;;;;;;;4.87;4.37;;;18.70;99.90;;;;;;5116991;28;20219;-78
2023/10/07 11:08:33;;;;;;;34.93;24.27;;;18.80;99.90;;;;;;5116399;28;20169;-78
2023/10/07 11:11:00;;;;;;;5.07;4.47;;;19.00;99.90;;;;;;5098582;28;20663;-79
2023/10/07 11:13:27;;;;;;;4.27;3.87;;;19.00;99.90;;;;;;5116466;28;20265;-80
2023/10/07 11:15:59;;;;;;;3.13;2.83;;;19.10;99.90;;;;;;5117631;28;20641;-77
2023/10/07 11:18:25;;;;;;;7.47;4.83;;;19.20;99.90;;;;;;5117212;28;20216;-78
2023/10/07 11:20:54;;;;;;;4.50;4.10;;;19.20;99.90;;;;;;5118332;28;20173;-78
2023/10/07 11:23:20;;;;;;;4.27;3.87;;;19.30;99.90;;;;;;5117522;28;20633;-79
2023/10/07 11:25:46;;;;;;;5.57;5.07;;;19.30;99.90;;;;;;5116387;28;20173;-78
2023/10/07 11:28:15;;;;;;;4.00;3.70;;;19.30;99.90;;;;;;5116342;28;20280;-78
2023/10/07 11:30:48;;;;;;;4.90;4.10;;;19.30;99.90;;;;;;5116748;28;20162;-76
2023/10/07 11:33:19;;;;;;;4.00;3.43;;;19.30;99.90;;;;;;5116400;28;20174;-79
2023/10/07 11:36:06;;;;;;;5.07;3.33;;;19.40;99.90;;;;;;5120840;28;20217;-78
2023/10/07 11:38:32;;;;;;;4.10;3.40;;;19.40;99.90;;;;;;5126374;28;20154;-81
2023/10/07 11:40:59;;;;;;;3.13;2.93;;;19.50;99.90;;;;;;5098521;28;20201;-78
2023/10/07 11:43:27;;;;;;;4.23;3.20;;;19.40;99.90;;;;;;5119044;28;20199;-78
2023/10/07 11:45:53;;;;;;;4.57;3.10;;;19.40;99.90;;;;;;5119346;28;20173;-81
2023/10/07 11:48:21;;;;;;;2.90;2.70;;;19.50;99.90;;;;;;5126052;28;20345;-80
2023/10/07 11:50:47;;;;;;;3.20;3.00;;;19.60;99.90;;;;;;5128458;28;20162;-78
2023/10/07 11:53:13;;;;;;;3.87;3.57;;;19.60;99.90;;;;;;5117661;28;20174;-79
2023/10/07 11:55:39;;;;;;;3.67;2.90;;;19.70;99.90;;;;;;5116107;28;20178;-77
2023/10/07 11:58:07;;;;;;;3.30;3.00;;;19.80;99.90;;;;;;5115824;28;20188;-79
2023/10/07 12:00:37;;;;;;;3.10;2.90;;;19.80;99.90;;;;;;5115630;28;20166;-78
2023/10/07 12:03:07;;;;;;;3.83;3.40;;;19.90;99.90;;;;;;5115988;28;20169;-78
2023/10/07 12:05:37;;;;;;;3.13;2.93;;;19.90;99.90;;;;;;5098789;28;20170;-78
2023/10/07 12:08:04;;;;;;;3.10;2.90;;;19.90;99.90;;;;;;5119793;28;20209;-78
2023/10/07 12:10:38;;;;;;;3.10;2.80;;;19.90;99.90;;;;;;5103049;28;20200;-79
2023/10/07 12:13:11;;;;;;;2.63;2.43;;;20.00;99.90;;;;;;5120339;28;20624;-79
2023/10/07 12:15:40;;;;;;;2.63;2.43;;;20.00;99.90;;;;;;5121801;28;20623;-78
2023/10/07 12:18:06;;;;;;;3.03;2.70;;;20.00;99.90;;;;;;5116561;28;20672;-77
2023/10/07 12:20:32;;;;;;;3.77;2.53;;;20.00;99.90;;;;;;5116687;28;20151;-79
2023/10/07 12:22:58;;;;;;;3.10;2.80;;;20.00;99.90;;;;;;5115816;28;20217;-79
2023/10/07 12:25:24;;;;;;;8.37;3.70;;;20.00;99.90;;;;;;5115700;28;20197;-78
2023/10/07 12:27:53;;;;;;;3.37;3.00;;;20.10;99.90;;;;;;5097111;28;20217;-78
2023/10/07 12:30:22;;;;;;;3.30;3.00;;;20.20;99.90;;;;;;5115500;28;20182;-77
2023/10/07 12:32:48;;;;;;;4.83;3.10;;;20.30;99.90;;;;;;5115055;28;20185;-78
2023/10/07 12:35:15;;;;;;;3.43;3.10;;;20.30;99.90;;;;;;5114970;28;20196;-78
2023/10/07 12:37:46;;;;;;;3.27;3.03;;;20.40;99.90;;;;;;5118878;28;20513;-79
2023/10/07 12:40:17;;;;;;;5.23;3.50;;;20.40;99.90;;;;;;5118674;28;20215;-77
2023/10/07 12:42:44;;;;;;;3.50;3.20;;;20.40;99.90;;;;;;5097410;28;20181;-77
2023/10/07 12:45:11;;;;;;;4.40;3.47;;;20.50;99.90;;;;;;5096363;28;20173;-78
2023/10/07 12:47:39;;;;;;;3.77;3.20;;;20.40;99.90;;;;;;5117586;28;20217;-80
2023/10/07 12:50:28;;;;;;;4.03;3.63;;;20.40;99.90;;;;;;5117547;28;20177;-79
2023/10/07 12:52:58;;;;;;;8.50;6.20;;;20.40;99.90;;;;;;5116679;28;20158;-80
2023/10/07 12:55:32;;;;;;;3.60;3.30;;;20.50;99.90;;;;;;5115300;28;20191;-78
2023/10/07 12:58:16;;;;;;;3.23;2.87;;;20.60;99.90;;;;;;5097349;28;20174;-75
2023/10/07 13:00:43;;;;;;;3.43;3.07;;;20.70;99.90;;;;;;5121430;28;20154;-78
2023/10/07 13:03:09;;;;;;;3.50;3.27;;;20.60;99.90;;;;;;5119819;28;20513;-78
2023/10/07 13:05:37;;;;;;;3.97;3.67;;;20.60;99.90;;;;;;5120465;28;20181;-77
2023/10/07 13:08:11;;;;;;;4.40;3.63;;;20.60;99.90;;;;;;5122408;28;20687;-79
2023/10/07 13:10:38;;;;;;;3.50;3.30;;;20.60;99.90;;;;;;5114864;28;20210;-77
2023/10/07 13:13:04;;;;;;;3.20;2.90;;;20.60;99.90;;;;;;5114821;28;20180;-80
2023/10/07 13:15:31;;;;;;;3.20;2.90;;;20.70;99.90;;;;;;5115389;28;20670;-78
2023/10/07 13:18:02;;;;;;;3.47;2.80;;;20.70;99.90;;;;;;5102111;28;20178;-79
2023/10/07 13:20:28;;;;;;;3.67;3.03;;;20.70;99.90;;;;;;5128033;28;20566;-79
2023/10/07 13:23:05;;;;;;;3.70;2.83;;;20.70;99.90;;;;;;5124433;28;20170;-79
2023/10/07 13:25:34;;;;;;;3.03;2.83;;;20.70;99.90;;;;;;5115765;28;20194;-80
2023/10/07 13:28:00;;;;;;;3.17;2.90;;;20.80;99.90;;;;;;5117793;28;20208;-80
2023/10/07 13:30:29;;;;;;;3.20;2.90;;;20.80;99.90;;;;;;5132667;28;20223;-77
2023/10/07 13:32:55;;;;;;;3.00;2.80;;;20.80;99.90;;;;;;5118056;28;20255;-79
2023/10/07 13:35:22;;;;;;;7.57;3.50;;;20.80;99.90;;;;;;5114445;28;20207;-79
2023/10/07 13:37:51;;;;;;;3.93;3.57;;;20.80;99.90;;;;;;5113748;28;20188;-77
2023/10/07 13:40:17;;;;;;;3.53;3.20;;;20.80;99.90;;;;;;5113724;28;20174;-77
2023/10/07 13:42:51;;;;;;;3.63;3.10;;;20.80;99.90;;;;;;5113681;28;20541;-77
2023/10/07 13:45:21;;;;;;;2.90;2.60;;;20.90;99.90;;;;;;5113456;28;20165;-78
2023/10/07 13:47:48;;;;;;;4.00;3.40;;;20.90;99.90;;;;;;5113312;28;20539;-77
2023/10/07 13:50:15;;;;;;;3.30;2.97;;;21.00;99.90;;;;;;5113724;28;20166;-78
2023/10/07 13:53:42;;;;;;;3.40;3.10;;;21.10;99.90;;;;;;5113520;28;20169;-78
2023/10/07 13:55:54;;;;;;;3.27;2.83;;;21.30;99.90;;;;;;5102632;28;20182;-79